Time;durP1;ratioP1;P1;durP2;ratioP2;P2;SDS_P1;SDS_P2;PMS_P1;PMS_P2;Temp;Humidity;BMP_temperature;BMP_pressure;BME280_temperature;BME280_humidity;BME280_pressure;Samples;Min_cycle;Max_cycle;Signal;HPM_P1;HPM_P2
2020/12/31 00:00:54;;;;;;;1.48;1.10;;;2.30;56.10;;;;;;5029219;28;20030;-82
2020/12/31 00:03:19;;;;;;;1.35;1.23;;;2.30;56.20;;;;;;5013708;28;20038;-81
2020/12/31 00:05:46;;;;;;;2.40;1.35;;;2.40;56.20;;;;;;5028915;28;20160;-82
2020/12/31 00:08:12;;;;;;;1.85;1.20;;;2.40;56.20;;;;;;5029217;28;20034;-82
2020/12/31 00:10:38;;;;;;;1.13;0.90;;;2.40;56.10;;;;;;5029120;28;20034;-83
2020/12/31 00:13:05;;;;;;;2.08;1.33;;;2.40;57.00;;;;;;5029246;28;20060;-82
2020/12/31 00:15:31;;;;;;;3.58;1.30;;;2.40;56.50;;;;;;5029143;28;20355;-83
2020/12/31 00:17:56;;;;;;;1.67;1.10;;;2.40;56.60;;;;;;5028977;28;20022;-82
2020/12/31 00:20:22;;;;;;;2.08;1.20;;;2.50;56.70;;;;;;5028987;28;20394;-82
2020/12/31 00:22:47;;;;;;;1.52;1.25;;;2.50;56.80;;;;;;5013879;28;20021;-82
2020/12/31 00:25:13;;;;;;;2.33;1.30;;;2.40;57.00;;;;;;5029366;28;20049;-83
2020/12/31 00:27:39;;;;;;;1.67;1.20;;;2.40;57.20;;;;;;5029025;28;20385;-83
2020/12/31 00:30:18;;;;;;;4.88;1.58;;;2.40;57.20;;;;;;5029778;28;20018;-84
2020/12/31 00:32:46;;;;;;;2.75;1.70;;;2.40;57.20;;;;;;5013561;28;20026;-81
2020/12/31 00:35:16;;;;;;;2.58;1.45;;;2.50;57.30;;;;;;5012451;28;20032;-82
2020/12/31 00:37:42;;;;;;;4.63;2.05;;;2.40;57.30;;;;;;5028903;28;20478;-81
2020/12/31 00:40:08;;;;;;;3.15;1.88;;;2.40;57.80;;;;;;5028287;28;20032;-81
2020/12/31 00:42:35;;;;;;;3.97;2.25;;;2.30;58.70;;;;;;5028851;28;20029;-81
2020/12/31 00:45:00;;;;;;;3.58;1.67;;;2.30;59.60;;;;;;5028218;28;20068;-80
2020/12/31 00:47:26;;;;;;;4.07;2.30;;;2.20;59.70;;;;;;5029578;28;20026;-82
2020/12/31 00:49:56;;;;;;;4.13;2.47;;;2.20;60.20;;;;;;5012908;28;20032;-81
2020/12/31 00:52:25;;;;;;;3.17;2.42;;;2.20;60.70;;;;;;5028809;28;20034;-84
2020/12/31 00:54:51;;;;;;;3.20;2.20;;;2.30;61.00;;;;;;5012998;28;20033;-80
2020/12/31 00:57:20;;;;;;;3.35;2.05;;;2.30;61.60;;;;;;5013510;28;20034;-82
2020/12/31 00:59:46;;;;;;;3.10;2.00;;;2.20;60.70;;;;;;5013442;28;20033;-82
2020/12/31 01:02:14;;;;;;;3.00;1.42;;;2.20;60.70;;;;;;5027982;28;20029;-80
2020/12/31 01:04:39;;;;;;;3.92;1.65;;;2.20;60.40;;;;;;5029422;28;20042;-84
2020/12/31 01:07:17;;;;;;;2.03;1.17;;;2.20;59.90;;;;;;5017959;28;20033;-84
2020/12/31 01:09:45;;;;;;;2.83;1.20;;;2.20;59.40;;;;;;5017568;28;20036;-84
2020/12/31 01:12:16;;;;;;;1.98;1.40;;;2.10;59.10;;;;;;5032628;28;20116;-80
2020/12/31 01:14:43;;;;;;;2.55;1.50;;;2.10;59.00;;;;;;5032039;28;20049;-80
2020/12/31 01:17:14;;;;;;;2.42;1.73;;;2.10;59.10;;;;;;5016687;28;20041;-80
2020/12/31 01:19:40;;;;;;;3.47;1.52;;;2.10;59.40;;;;;;5016102;28;20026;-82
2020/12/31 01:22:07;;;;;;;2.20;1.33;;;2.10;59.80;;;;;;5015658;28;20041;-80
2020/12/31 01:24:32;;;;;;;2.45;1.60;;;2.00;60.30;;;;;;5031786;28;20524;-81
2020/12/31 01:27:01;;;;;;;2.47;1.35;;;2.00;60.50;;;;;;5030906;28;20030;-82
2020/12/31 01:29:26;;;;;;;2.17;1.48;;;2.10;60.40;;;;;;5015621;28;20490;-82
2020/12/31 01:31:52;;;;;;;2.20;1.35;;;2.00;60.50;;;;;;5015388;28;20042;-80
2020/12/31 01:34:18;;;;;;;2.67;1.55;;;2.00;60.60;;;;;;5014939;28;20194;-81
2020/12/31 01:36:43;;;;;;;2.80;1.67;;;2.00;60.70;;;;;;5016387;28;20490;-81
2020/12/31 01:39:09;;;;;;;2.47;1.30;;;2.00;60.90;;;;;;5031270;28;20026;-81
2020/12/31 01:41:35;;;;;;;1.77;1.10;;;1.90;61.10;;;;;;5015395;28;20501;-82
2020/12/31 01:44:06;;;;;;;2.50;1.25;;;1.90;61.10;;;;;;5017949;28;20022;-80
2020/12/31 01:46:34;;;;;;;3.25;1.73;;;1.90;61.20;;;;;;5046292;28;20033;-81
2020/12/31 01:49:02;;;;;;;2.03;1.60;;;1.80;60.60;;;;;;5054538;28;20064;-81
2020/12/31 01:51:29;;;;;;;2.35;1.50;;;1.80;60.30;;;;;;5047276;28;20024;-83
2020/12/31 01:53:56;;;;;;;3.28;1.60;;;1.80;60.00;;;;;;5036375;28;20025;-83
2020/12/31 01:56:33;;;;;;;2.00;1.40;;;1.80;59.90;;;;;;5034736;28;20073;-83
2020/12/31 01:59:00;;;;;;;4.40;1.80;;;1.80;60.00;;;;;;5019365;28;20030;-85
2020/12/31 02:01:26;;;;;;;1.75;1.23;;;1.80;60.10;;;;;;5017058;28;20077;-85
2020/12/31 02:03:57;;;;;;;2.40;1.30;;;1.90;60.30;;;;;;5017029;28;20054;-85
2020/12/31 02:06:23;;;;;;;1.65;1.20;;;1.80;60.20;;;;;;5031568;28;20033;-85
2020/12/31 02:08:51;;;;;;;1.80;1.50;;;1.80;59.90;;;;;;5031860;28;20083;-84
2020/12/31 02:11:18;;;;;;;2.13;1.30;;;1.80;59.30;;;;;;5031951;28;20018;-85
2020/12/31 02:13:44;;;;;;;2.20;1.40;;;1.80;58.90;;;;;;4999187;28;20113;-85
2020/12/31 02:16:11;;;;;;;2.65;1.38;;;1.70;59.40;;;;;;5030622;28;20509;-85
2020/12/31 02:18:58;;;;;;;2.38;1.25;;;1.70;59.70;;;;;;5031825;28;20557;-85
2020/12/31 02:21:29;;;;;;;2.60;1.50;;;1.60;60.40;;;;;;5031814;28;20033;-85
2020/12/31 02:23:56;;;;;;;3.20;1.58;;;1.60;60.80;;;;;;5031833;28;20032;-85
2020/12/31 02:26:24;;;;;;;2.10;1.40;;;1.60;61.20;;;;;;5031591;28;20030;-85
2020/12/31 02:28:51;;;;;;;2.25;1.33;;;1.40;61.60;;;;;;5031572;28;20073;-86
2020/12/31 02:31:17;;;;;;;3.88;1.80;;;1.40;62.10;;;;;;5031100;28;20026;-84
2020/12/31 02:33:50;;;;;;;2.75;1.50;;;1.30;62.70;;;;;;5030738;28;20473;-84
2020/12/31 02:36:18;;;;;;;2.05;1.50;;;1.30;63.50;;;;;;5013085;28;20046;-84
2020/12/31 02:38:46;;;;;;;3.15;1.63;;;1.20;64.10;;;;;;5014725;28;20026;-83
2020/12/31 02:41:14;;;;;;;3.20;1.60;;;1.20;64.90;;;;;;5014249;28;20022;-83
2020/12/31 02:43:40;;;;;;;5.05;2.75;;;1.10;66.00;;;;;;5014224;28;20080;-83
2020/12/31 02:46:09;;;;;;;3.15;2.20;;;1.00;67.30;;;;;;5014029;28;20038;-83
2020/12/31 02:48:34;;;;;;;3.58;2.45;;;1.00;68.70;;;;;;5013976;28;20051;-83
2020/12/31 02:51:03;;;;;;;3.72;2.40;;;0.90;69.50;;;;;;5030767;28;20029;-83
2020/12/31 02:53:30;;;;;;;4.13;3.38;;;0.90;70.20;;;;;;5015117;28;20037;-83
2020/12/31 02:55:56;;;;;;;3.45;2.42;;;0.80;70.70;;;;;;5030451;28;20030;-83
2020/12/31 02:58:21;;;;;;;5.47;3.22;;;0.80;71.40;;;;;;5030246;28;20052;-82
2020/12/31 03:00:48;;;;;;;5.13;3.72;;;0.80;71.80;;;;;;5014877;28;20109;-83
2020/12/31 03:03:14;;;;;;;6.45;3.65;;;0.70;72.50;;;;;;5030257;28;20022;-83
2020/12/31 03:05:39;;;;;;;5.30;3.30;;;0.70;73.20;;;;;;5029798;28;20030;-83
2020/12/31 03:08:07;;;;;;;6.05;4.07;;;0.60;73.60;;;;;;5030068;28;20037;-83
2020/12/31 03:10:33;;;;;;;7.70;4.70;;;0.60;74.10;;;;;;5013414;28;20037;-83
2020/12/31 03:12:59;;;;;;;5.15;3.97;;;0.50;74.70;;;;;;4996036;28;20038;-83
2020/12/31 03:15:26;;;;;;;5.07;4.22;;;0.60;75.00;;;;;;5013383;28;20022;-83
2020/12/31 03:17:51;;;;;;;7.47;3.88;;;0.60;75.30;;;;;;5029620;28;20041;-83
2020/12/31 03:20:18;;;;;;;8.55;4.78;;;0.50;75.70;;;;;;5014744;28;20093;-83
2020/12/31 03:22:44;;;;;;;6.53;4.30;;;0.50;75.90;;;;;;5014708;28;20091;-82
2020/12/31 03:25:10;;;;;;;6.25;4.50;;;0.50;75.90;;;;;;5029722;28;20418;-83
2020/12/31 03:27:38;;;;;;;8.10;4.75;;;0.50;75.90;;;;;;5029484;28;20076;-83
2020/12/31 03:30:06;;;;;;;7.10;4.85;;;0.50;76.00;;;;;;5013915;28;20449;-84
2020/12/31 03:32:33;;;;;;;8.65;5.25;;;0.50;76.10;;;;;;5013391;28;20080;-84
2020/12/31 03:34:59;;;;;;;7.45;5.68;;;0.50;76.10;;;;;;5014168;28;20038;-83
2020/12/31 03:37:25;;;;;;;10.20;4.97;;;0.50;76.20;;;;;;5029468;28;20482;-84
2020/12/31 03:39:59;;;;;;;7.00;5.07;;;0.60;76.10;;;;;;5034398;28;20105;-84
2020/12/31 03:42:24;;;;;;;7.15;5.00;;;0.60;76.00;;;;;;5030112;28;20022;-82
2020/12/31 03:44:51;;;;;;;7.18;4.85;;;0.60;76.00;;;;;;5045614;28;20049;-83
2020/12/31 03:47:17;;;;;;;7.32;4.88;;;0.70;75.80;;;;;;5030843;28;20053;-83
2020/12/31 03:49:45;;;;;;;10.75;4.82;;;0.70;75.60;;;;;;5029416;28;20061;-84
2020/12/31 03:52:11;;;;;;;7.35;4.85;;;0.70;75.40;;;;;;5013072;28;20060;-83
2020/12/31 03:54:36;;;;;;;8.73;5.15;;;0.70;75.20;;;;;;5013123;28;20058;-84
2020/12/31 03:57:02;;;;;;;8.18;4.88;;;0.80;74.90;;;;;;5014173;28;20546;-82
2020/12/31 03:59:28;;;;;;;10.15;4.72;;;0.70;74.80;;;;;;5029251;28;20033;-83
2020/12/31 04:01:53;;;;;;;10.32;5.20;;;0.80;74.80;;;;;;5014029;28;20021;-83
2020/12/31 04:04:19;;;;;;;7.95;4.75;;;0.80;74.50;;;;;;5028782;28;20069;-82
2020/12/31 04:06:44;;;;;;;8.68;4.97;;;0.80;74.50;;;;;;5013665;28;20033;-83
2020/12/31 04:09:10;;;;;;;8.27;4.93;;;0.80;74.50;;;;;;5029063;28;20033;-83
2020/12/31 04:11:36;;;;;;;7.38;4.80;;;0.90;74.40;;;;;;5029004;28;20026;-84
2020/12/31 04:14:02;;;;;;;9.77;4.85;;;0.90;74.30;;;;;;5033523;28;20049;-81
2020/12/31 04:16:27;;;;;;;6.43;4.35;;;0.90;74.20;;;;;;5042438;28;20045;-83
2020/12/31 04:18:53;;;;;;;8.45;4.65;;;0.90;74.10;;;;;;5052257;28;20017;-82
2020/12/31 04:21:22;;;;;;;7.65;4.80;;;0.90;74.00;;;;;;5039531;28;20033;-82
2020/12/31 04:23:50;;;;;;;6.30;4.45;;;0.90;73.90;;;;;;5028485;28;20026;-82
2020/12/31 04:26:16;;;;;;;10.25;5.05;;;0.90;73.80;;;;;;5028878;28;20235;-81
2020/12/31 04:28:41;;;;;;;7.25;4.93;;;0.80;73.60;;;;;;5028486;28;20501;-80
2020/12/31 04:31:07;;;;;;;6.88;4.55;;;0.80;73.70;;;;;;5028496;28;20083;-80
2020/12/31 04:33:38;;;;;;;7.63;5.00;;;0.70;73.90;;;;;;5028631;28;20034;-82
2020/12/31 04:36:04;;;;;;;9.00;4.90;;;0.70;74.10;;;;;;5028626;28;20042;-81
2020/12/31 04:38:31;;;;;;;7.00;4.35;;;0.70;74.20;;;;;;5011981;28;20057;-83
2020/12/31 04:41:01;;;;;;;9.02;4.82;;;0.80;74.20;;;;;;5011853;28;20026;-80
2020/12/31 04:43:27;;;;;;;9.23;5.32;;;0.70;74.20;;;;;;5028857;28;20482;-81
2020/12/31 04:45:54;;;;;;;6.25;4.38;;;0.70;74.20;;;;;;5028399;28;20038;-81
2020/12/31 04:48:37;;;;;;;6.43;4.32;;;0.60;74.10;;;;;;5013404;28;20100;-80
2020/12/31 04:51:06;;;;;;;9.57;5.18;;;0.60;74.30;;;;;;5028612;28;20069;-81
2020/12/31 04:53:32;;;;;;;13.55;7.03;;;0.60;74.30;;;;;;5028290;28;20022;-81
2020/12/31 04:56:01;;;;;;;9.52;5.85;;;0.70;74.30;;;;;;5012110;28;20494;-81
2020/12/31 04:58:26;;;;;;;10.93;5.65;;;0.60;74.10;;;;;;5028409;28;20030;-82
2020/12/31 05:00:52;;;;;;;8.95;5.10;;;0.70;74.20;;;;;;5028512;28;20048;-81
2020/12/31 05:03:21;;;;;;;7.07;4.90;;;0.70;74.00;;;;;;5028301;28;20073;-82
2020/12/31 05:05:52;;;;;;;8.57;5.45;;;0.80;74.00;;;;;;5028264;28;20026;-81
2020/12/31 05:08:18;;;;;;;8.07;4.78;;;0.80;73.90;;;;;;5012998;28;20102;-81
2020/12/31 05:10:55;;;;;;;8.02;5.13;;;0.80;74.00;;;;;;5028284;28;20061;-81
2020/12/31 05:13:21;;;;;;;8.40;4.90;;;0.90;74.10;;;;;;5028274;28;20030;-80
2020/12/31 05:15:49;;;;;;;7.38;4.70;;;0.90;74.20;;;;;;5027860;28;20026;-82
2020/12/31 05:18:18;;;;;;;7.80;5.30;;;0.90;74.20;;;;;;5028192;28;20037;-82
2020/12/31 05:20:46;;;;;;;8.23;5.20;;;1.00;74.20;;;;;;5028283;28;20026;-81
2020/12/31 05:23:15;;;;;;;7.75;6.07;;;0.90;74.30;;;;;;5011826;28;20030;-81
2020/12/31 05:25:42;;;;;;;11.93;6.78;;;1.00;74.40;;;;;;5028014;28;20474;-82
2020/12/31 05:28:27;;;;;;;10.18;6.50;;;1.00;74.40;;;;;;5012836;28;20034;-81
2020/12/31 05:30:55;;;;;;;9.82;6.10;;;1.00;74.60;;;;;;5013223;28;20026;-80
2020/12/31 05:33:41;;;;;;;9.48;6.43;;;1.00;74.60;;;;;;5028057;28;20187;-81
2020/12/31 05:36:23;;;;;;;9.98;6.63;;;1.00;74.70;;;;;;5012912;28;20390;-82
2020/12/31 05:38:54;;;;;;;9.65;5.65;;;1.00;74.90;;;;;;5028198;28;20057;-81
2020/12/31 05:41:26;;;;;;;10.23;6.30;;;0.90;75.00;;;;;;5028007;28;20030;-81
2020/12/31 05:43:54;;;;;;;7.95;5.75;;;1.00;74.90;;;;;;5028226;28;20088;-81
2020/12/31 05:46:20;;;;;;;7.38;5.13;;;1.00;74.90;;;;;;5028178;28;20470;-81
2020/12/31 05:49:01;;;;;;;9.75;5.93;;;1.10;74.90;;;;;;5028136;28;20405;-80
2020/12/31 05:51:32;;;;;;;9.70;5.95;;;1.10;74.70;;;;;;5011688;28;20061;-84
2020/12/31 05:54:17;;;;;;;11.23;6.03;;;1.10;74.70;;;;;;5016888;28;20475;-82
2020/12/31 05:56:44;;;;;;;9.70;6.63;;;1.10;74.70;;;;;;5015196;28;20041;-83
2020/12/31 05:59:24;;;;;;;7.75;5.22;;;1.10;74.60;;;;;;5016516;28;20433;-83
2020/12/31 06:01:58;;;;;;;7.57;5.85;;;1.20;74.50;;;;;;5031955;28;20034;-81
2020/12/31 06:04:46;;;;;;;7.80;5.25;;;1.20;74.50;;;;;;5031404;28;20138;-82
2020/12/31 06:07:32;;;;;;;7.47;5.57;;;1.10;74.50;;;;;;5029076;28;20037;-84
2020/12/31 06:10:05;;;;;;;;;;;1.10;74.50;;;;;;5017137;28;20033;-80
2020/12/31 06:12:52;;;;;;;7.90;5.30;;;1.10;74.50;;;;;;5033085;28;19912;-79
2020/12/31 06:15:22;;;;;;;6.72;5.03;;;1.20;74.40;;;;;;5015784;28;20037;-80
2020/12/31 06:17:49;;;;;;;7.40;5.43;;;1.20;74.30;;;;;;5017031;28;20049;-81
2020/12/31 06:20:20;;;;;;;9.13;5.90;;;1.20;74.30;;;;;;5036337;28;20121;-82
2020/12/31 06:23:05;;;;;;;6.63;4.97;;;1.30;74.20;;;;;;5038229;28;20026;-83
2020/12/31 06:25:36;;;;;;;7.63;4.97;;;1.30;74.10;;;;;;5041976;28;20021;-83
2020/12/31 06:28:10;;;;;;;8.65;5.35;;;1.30;74.00;;;;;;5037728;28;20041;-81
2020/12/31 06:30:38;;;;;;;7.85;5.30;;;1.30;74.00;;;;;;5051522;28;20029;-81
2020/12/31 06:33:30;;;;;;;8.45;5.70;;;1.40;73.90;;;;;;5038478;28;20052;-80
2020/12/31 06:36:01;;;;;;;6.93;4.88;;;1.40;73.70;;;;;;5039233;28;20061;-81
2020/12/31 06:38:47;;;;;;;7.90;4.90;;;1.40;73.50;;;;;;5034171;28;20049;-79
2020/12/31 06:41:31;;;;;;;7.72;4.78;;;1.40;73.60;;;;;;5051509;28;20068;-80
2020/12/31 06:44:20;;;;;;;5.97;4.55;;;1.40;73.60;;;;;;5055602;28;20038;-79
2020/12/31 06:46:50;;;;;;;7.03;5.40;;;1.50;73.30;;;;;;5040114;28;20030;-79
2020/12/31 06:49:17;;;;;;;6.55;5.13;;;1.50;73.00;;;;;;5036595;28;20018;-82
2020/12/31 06:51:44;;;;;;;7.72;4.57;;;1.50;72.90;;;;;;5035679;28;20026;-81
2020/12/31 06:54:11;;;;;;;6.53;4.60;;;1.50;72.70;;;;;;5030653;28;20030;-82
2020/12/31 06:56:52;;;;;;;6.82;5.53;;;1.50;72.70;;;;;;5030659;28;20037;-80
2020/12/31 06:59:35;;;;;;;6.43;4.72;;;1.50;72.60;;;;;;5030665;28;20046;-80
2020/12/31 07:02:02;;;;;;;8.20;4.40;;;1.50;72.30;;;;;;5030652;28;20030;-80
2020/12/31 07:04:29;;;;;;;6.82;4.75;;;1.50;71.30;;;;;;5030457;28;20100;-81
2020/12/31 07:06:59;;;;;;;6.40;4.07;;;1.60;70.50;;;;;;5016112;28;20065;-80
2020/12/31 07:09:36;;;;;;;5.25;3.80;;;1.60;70.00;;;;;;5015846;28;20474;-80
2020/12/31 07:12:06;;;;;;;6.63;4.40;;;1.50;69.80;;;;;;5031649;28;20026;-80
2020/12/31 07:14:34;;;;;;;7.88;4.47;;;1.60;69.50;;;;;;5031253;28;20022;-83
2020/12/31 07:17:06;;;;;;;5.35;3.95;;;1.50;69.30;;;;;;5030298;28;20042;-81
2020/12/31 07:19:47;;;;;;;6.88;4.10;;;1.60;68.80;;;;;;5026370;28;20117;-82
2020/12/31 07:22:21;;;;;;;5.80;4.57;;;1.70;68.40;;;;;;5032769;28;20164;-83
2020/12/31 07:25:18;;;;;;;8.63;4.57;;;1.70;68.30;;;;;;5015411;28;20029;-82
2020/12/31 07:28:04;;;;;;;;;;;1.80;68.20;;;;;;5015991;28;20265;-82
2020/12/31 07:30:30;;;;;;;;;;;1.70;68.10;;;;;;5031436;28;19959;-81
2020/12/31 07:33:00;;;;;;;;;;;1.70;68.20;;;;;;5016263;28;20151;-81
2020/12/31 07:35:42;;;;;;;4.97;3.95;;;1.70;67.80;;;;;;5015322;28;19913;-83
2020/12/31 07:38:18;;;;;;;5.75;3.95;;;1.70;67.70;;;;;;5015260;28;20060;-79
2020/12/31 07:40:56;;;;;;;6.28;4.28;;;1.70;67.60;;;;;;5014886;28;20026;-83
2020/12/31 07:43:27;;;;;;;6.57;4.47;;;1.70;68.00;;;;;;5014723;28;20034;-82
2020/12/31 07:46:01;;;;;;;6.90;4.85;;;1.80;67.90;;;;;;5014877;28;20168;-80
2020/12/31 07:48:27;;;;;;;6.85;4.30;;;1.80;67.90;;;;;;5029773;28;20501;-79
2020/12/31 07:50:55;;;;;;;6.20;4.20;;;1.90;67.60;;;;;;5014054;28;20041;-77
2020/12/31 07:53:21;;;;;;;5.93;4.70;;;1.80;67.60;;;;;;5033464;28;20084;-85
2020/12/31 07:55:53;;;;;;;6.25;4.50;;;1.80;67.90;;;;;;5032201;28;20026;-80
2020/12/31 07:58:28;;;;;;;8.73;5.50;;;1.90;67.90;;;;;;5031070;28;20025;-84
2020/12/31 08:01:05;;;;;;;6.88;4.05;;;2.10;73.30;;;;;;5016452;28;20061;-83
2020/12/31 08:03:32;;;;;;;5.85;4.50;;;2.60;73.20;;;;;;5019198;28;20049;-80
2020/12/31 08:06:02;;;;;;;6.93;4.97;;;3.00;71.90;;;;;;5029124;28;20028;-81
2020/12/31 08:08:37;;;;;;;5.75;4.35;;;3.30;69.40;;;;;;5028929;28;20017;-81
2020/12/31 08:11:07;;;;;;;6.40;3.38;;;3.60;68.10;;;;;;5011771;28;20053;-82
2020/12/31 08:13:34;;;;;;;5.38;3.67;;;3.90;67.10;;;;;;5028670;28;20029;-83
2020/12/31 08:16:08;;;;;;;5.90;4.35;;;4.20;65.40;;;;;;5033412;28;20030;-81
2020/12/31 08:33:24;;;;;;;7.78;4.45;;;4.70;58.90;;;;;;5090096;22;20145;-78
2020/12/31 08:35:50;;;;;;;7.22;4.68;;;4.50;58.20;;;;;;5012218;28;20030;-78
2020/12/31 08:38:22;;;;;;;6.88;4.65;;;4.20;58.50;;;;;;4995697;28;20036;-77
2020/12/31 08:40:51;;;;;;;9.18;5.45;;;4.00;59.00;;;;;;4995483;28;20026;-77
2020/12/31 08:43:18;;;;;;;6.65;4.10;;;3.80;59.60;;;;;;4995513;28;20030;-78
2020/12/31 08:45:44;;;;;;;8.40;4.78;;;3.70;60.40;;;;;;5012179;28;20084;-79
2020/12/31 08:48:23;;;;;;;5.72;4.57;;;3.60;60.80;;;;;;4995437;28;20030;-79
2020/12/31 08:51:08;;;;;;;8.07;5.20;;;3.60;61.40;;;;;;4995701;28;20022;-79
2020/12/31 08:54:04;;;;;;;6.07;3.73;;;3.50;62.40;;;;;;5011833;28;20033;-80
2020/12/31 08:56:34;;;;;;;6.40;4.45;;;3.40;63.50;;;;;;4983404;28;20042;-79
2020/12/31 08:59:11;;;;;;;7.15;4.88;;;3.40;62.70;;;;;;5011917;28;20041;-78
2020/12/31 09:01:39;;;;;;;7.15;5.15;;;3.30;62.20;;;;;;4995141;28;20049;-78
2020/12/31 09:04:09;;;;;;;5.57;4.53;;;3.10;62.50;;;;;;5011887;28;20029;-78
2020/12/31 09:06:44;;;;;;;6.78;4.72;;;3.00;63.30;;;;;;4995935;28;20037;-78
2020/12/31 09:09:27;;;;;;;6.65;4.38;;;3.00;63.70;;;;;;4995625;28;20462;-78
2020/12/31 09:11:59;;;;;;;7.07;4.35;;;2.90;64.00;;;;;;4995808;28;20088;-78
2020/12/31 09:14:26;;;;;;;5.95;4.25;;;3.00;63.90;;;;;;4995509;28;20033;-78
2020/12/31 09:16:52;;;;;;;6.35;4.60;;;2.90;63.90;;;;;;4995503;28;20045;-78
2020/12/31 09:19:21;;;;;;;6.00;4.63;;;2.80;64.10;;;;;;4995210;28;20103;-78
2020/12/31 09:21:47;;;;;;;6.45;4.20;;;2.80;63.70;;;;;;4994789;28;20038;-78
2020/12/31 09:24:21;;;;;;;5.50;4.30;;;2.80;64.00;;;;;;4995585;28;20084;-80
2020/12/31 09:27:11;;;;;;;6.03;4.27;;;2.80;64.40;;;;;;5014964;28;20065;-80
2020/12/31 09:29:38;;;;;;;6.32;4.22;;;2.90;64.50;;;;;;4975554;28;20093;-79
2020/12/31 09:32:08;;;;;;;5.80;4.10;;;3.00;64.80;;;;;;4959195;28;20050;-78
2020/12/31 09:34:34;;;;;;;8.57;5.15;;;3.00;64.90;;;;;;4975514;28;20035;-78
2020/12/31 09:37:00;;;;;;;8.13;4.47;;;3.00;64.60;;;;;;4959215;28;20439;-78
2020/12/31 09:39:26;;;;;;;6.45;4.45;;;3.00;64.50;;;;;;4960872;28;20541;-79
2020/12/31 09:41:53;;;;;;;6.32;3.72;;;3.00;64.00;;;;;;4960414;28;20062;-80
2020/12/31 09:44:19;;;;;;;6.90;3.90;;;3.10;63.70;;;;;;4959675;28;20470;-79
2020/12/31 09:46:49;;;;;;;7.57;4.63;;;3.20;63.80;;;;;;4975150;28;20545;-79
2020/12/31 09:49:14;;;;;;;9.25;4.25;;;3.20;63.70;;;;;;4959202;28;20484;-79
2020/12/31 09:51:40;;;;;;;6.22;4.07;;;3.10;63.70;;;;;;4958927;28;20038;-77
2020/12/31 09:54:07;;;;;;;5.38;3.83;;;3.10;62.70;;;;;;4975240;28;20035;-77
2020/12/31 09:56:33;;;;;;;8.80;4.18;;;3.20;62.70;;;;;;4958672;28;20039;-78
2020/12/31 09:58:59;;;;;;;5.78;3.38;;;3.30;62.70;;;;;;4958637;28;20050;-78
2020/12/31 10:01:25;;;;;;;8.30;4.15;;;3.30;61.70;;;;;;4989036;28;20390;-78
2020/12/31 10:03:51;;;;;;;5.22;3.50;;;3.30;61.30;;;;;;4994996;28;20526;-79
2020/12/31 10:06:16;;;;;;;7.20;3.92;;;3.40;61.00;;;;;;5011439;28;20117;-79
2020/12/31 10:08:44;;;;;;;4.13;3.38;;;3.40;60.70;;;;;;4995176;28;20447;-78
2020/12/31 10:11:09;;;;;;;4.40;3.55;;;3.40;60.90;;;;;;5011541;28;20035;-78
2020/12/31 10:13:35;;;;;;;4.50;3.65;;;3.40;61.70;;;;;;4994852;28;20030;-79
2020/12/31 10:16:02;;;;;;;5.22;3.47;;;3.50;61.00;;;;;;4994676;28;20114;-78
2020/12/31 10:18:28;;;;;;;6.07;3.50;;;3.50;60.90;;;;;;4994865;28;20060;-79
2020/12/31 10:20:54;;;;;;;4.70;3.47;;;3.50;60.90;;;;;;4996602;28;20029;-79
2020/12/31 10:23:20;;;;;;;8.00;3.40;;;3.70;61.90;;;;;;4996069;28;20036;-79
2020/12/31 10:25:49;;;;;;;5.15;3.78;;;3.90;61.00;;;;;;4996133;28;20033;-78
2020/12/31 10:28:16;;;;;;;8.30;4.35;;;3.90;60.60;;;;;;5010773;28;20086;-78
2020/12/31 10:30:42;;;;;;;7.07;3.80;;;4.00;60.30;;;;;;4994565;28;20033;-78
2020/12/31 10:33:09;;;;;;;4.43;3.00;;;4.00;60.20;;;;;;4994436;28;20056;-78
2020/12/31 10:35:34;;;;;;;5.20;3.10;;;4.00;60.20;;;;;;4994648;28;20023;-78
2020/12/31 10:38:00;;;;;;;5.63;3.35;;;3.90;60.60;;;;;;4993862;28;20057;-78
2020/12/31 10:40:27;;;;;;;4.00;3.08;;;4.00;61.00;;;;;;4995493;28;20096;-77
2020/12/31 10:42:53;;;;;;;4.32;3.35;;;3.70;61.50;;;;;;4994659;28;20105;-78
2020/12/31 10:45:19;;;;;;;4.97;3.03;;;3.70;62.30;;;;;;4994050;28;20057;-77
2020/12/31 10:47:45;;;;;;;5.50;3.72;;;3.70;62.60;;;;;;4994430;28;20105;-76
2020/12/31 10:50:11;;;;;;;6.85;3.78;;;3.90;62.70;;;;;;4992979;28;20123;-76
2020/12/31 10:52:37;;;;;;;4.82;3.50;;;4.10;62.60;;;;;;4994398;28;20105;-77
2020/12/31 10:55:05;;;;;;;5.82;3.35;;;4.10;62.00;;;;;;4994295;28;20368;-78
2020/12/31 10:57:31;;;;;;;6.32;2.90;;;4.00;62.10;;;;;;4993853;28;20041;-78
2020/12/31 10:59:56;;;;;;;5.13;3.55;;;4.10;62.40;;;;;;4993812;28;20026;-78
2020/12/31 11:02:23;;;;;;;4.28;3.25;;;4.40;62.10;;;;;;4993534;28;20057;-78
2020/12/31 11:04:50;;;;;;;4.05;3.00;;;4.60;61.30;;;;;;4977340;28;20030;-78
2020/12/31 11:07:17;;;;;;;3.78;2.88;;;4.80;60.70;;;;;;4993864;28;20036;-79
2020/12/31 11:09:43;;;;;;;5.93;3.50;;;5.00;59.30;;;;;;4977977;28;20071;-78
2020/12/31 11:12:09;;;;;;;3.75;3.35;;;5.10;58.80;;;;;;4998623;28;20026;-78
2020/12/31 11:14:35;;;;;;;3.92;3.00;;;5.20;58.30;;;;;;4993960;28;20030;-81
2020/12/31 11:17:02;;;;;;;4.85;3.10;;;4.80;58.10;;;;;;4977749;28;20137;-80
2020/12/31 11:19:29;;;;;;;5.25;3.40;;;4.80;58.30;;;;;;4994224;28;20142;-79
2020/12/31 11:21:55;;;;;;;5.40;3.78;;;4.80;58.40;;;;;;4977609;28;20475;-78
2020/12/31 11:24:24;;;;;;;4.05;3.20;;;4.60;58.60;;;;;;4993742;28;20054;-80
2020/12/31 11:26:50;;;;;;;5.20;4.07;;;4.50;58.90;;;;;;4977625;28;20034;-78
2020/12/31 11:29:15;;;;;;;6.05;3.90;;;4.50;59.20;;;;;;4994001;28;20018;-78
2020/12/31 11:31:41;;;;;;;5.15;3.40;;;4.40;59.50;;;;;;4993872;28;20379;-79
2020/12/31 11:34:07;;;;;;;4.40;2.97;;;4.40;59.50;;;;;;5014551;28;20639;-78
2020/12/31 11:36:34;;;;;;;4.13;3.30;;;4.20;59.50;;;;;;4996368;28;20062;-77
2020/12/31 11:39:00;;;;;;;4.60;3.92;;;4.20;59.70;;;;;;4995923;28;20026;-78
2020/12/31 11:41:27;;;;;;;3.83;3.10;;;4.20;59.90;;;;;;4996638;28;20032;-78
2020/12/31 11:43:53;;;;;;;4.80;3.38;;;4.20;60.40;;;;;;4997017;28;20608;-80
2020/12/31 11:46:19;;;;;;;7.60;4.68;;;4.10;60.80;;;;;;4997438;28;20112;-79
2020/12/31 11:49:07;;;;;;;4.63;3.63;;;4.00;60.80;;;;;;4996530;28;20474;-82
2020/12/31 11:51:34;;;;;;;6.10;4.10;;;4.00;63.20;;;;;;5005615;28;20581;-83
2020/12/31 11:54:01;;;;;;;5.07;3.80;;;4.40;67.60;;;;;;5012490;28;20042;-82
2020/12/31 11:56:27;;;;;;;4.95;3.67;;;4.80;65.50;;;;;;4996275;28;20121;-83
2020/12/31 11:58:56;;;;;;;5.78;4.13;;;5.00;64.60;;;;;;4997692;28;20573;-83
2020/12/31 12:01:22;;;;;;;5.72;3.42;;;5.30;63.40;;;;;;4980818;28;20033;-82
2020/12/31 12:03:50;;;;;;;5.10;3.47;;;5.50;65.30;;;;;;4979978;28;20120;-82
2020/12/31 12:06:18;;;;;;;7.72;3.72;;;5.80;64.10;;;;;;4995971;28;20037;-80
2020/12/31 12:08:47;;;;;;;6.97;4.18;;;6.10;62.70;;;;;;4996019;28;20029;-81
2020/12/31 12:12:01;;;;;;;5.57;3.47;;;6.20;62.10;;;;;;4996198;28;20046;-79
2020/12/31 12:15:17;;;;;;;5.93;3.53;;;6.40;60.40;;;;;;4999532;28;20026;-79
2020/12/31 12:17:42;;;;;;;7.95;3.80;;;6.50;59.20;;;;;;4993611;28;20043;-81
2020/12/31 12:20:11;;;;;;;6.78;4.18;;;6.70;59.00;;;;;;4996717;28;20108;-78
2020/12/31 12:22:38;;;;;;;5.15;3.53;;;6.90;56.90;;;;;;4995584;28;20014;-78
2020/12/31 12:25:05;;;;;;;4.05;2.75;;;6.80;57.10;;;;;;4995877;28;20026;-77
2020/12/31 12:27:30;;;;;;;4.45;3.20;;;6.60;56.30;;;;;;4995215;28;20036;-79
2020/12/31 12:29:56;;;;;;;4.22;2.83;;;6.30;55.30;;;;;;4995918;28;20029;-79
2020/12/31 12:32:22;;;;;;;5.07;3.08;;;6.00;56.10;;;;;;5010840;28;20065;-76
2020/12/31 12:34:48;;;;;;;4.63;3.15;;;5.90;58.20;;;;;;4976173;28;20070;-74
2020/12/31 12:37:21;;;;;;;7.03;4.13;;;6.20;59.70;;;;;;4976174;28;20038;-81
2020/12/31 12:39:47;;;;;;;5.65;3.60;;;6.10;57.40;;;;;;4976054;28;20050;-76
2020/12/31 12:42:14;;;;;;;6.97;2.92;;;6.30;58.50;;;;;;4975890;28;20030;-77
2020/12/31 12:44:41;;;;;;;3.20;2.80;;;6.70;59.80;;;;;;4993401;28;20054;-81
2020/12/31 12:47:11;;;;;;;4.45;2.95;;;6.90;57.30;;;;;;4993407;28;20027;-79
2020/12/31 12:49:44;;;;;;;11.75;3.28;;;6.70;55.10;;;;;;4959686;28;20033;-77
2020/12/31 12:52:11;;;;;;;43.25;5.47;;;6.60;54.80;;;;;;4993103;28;20068;-79
2020/12/31 12:54:41;;;;;;;11.15;3.42;;;6.60;56.70;;;;;;4978997;28;20026;-77
2020/12/31 12:57:18;;;;;;;18.25;4.07;;;6.60;56.10;;;;;;4994895;28;20045;-80
2020/12/31 12:59:50;;;;;;;12.80;2.97;;;6.90;56.80;;;;;;4995111;28;20483;-80
2020/12/31 13:02:18;;;;;;;11.85;3.20;;;7.30;56.00;;;;;;4998970;28;20042;-79
2020/12/31 13:04:44;;;;;;;4.38;3.13;;;7.60;54.90;;;;;;5016302;28;20573;-76
2020/12/31 13:07:11;;;;;;;6.57;3.58;;;7.80;53.20;;;;;;4982721;28;20169;-79
2020/12/31 13:09:37;;;;;;;4.88;2.90;;;7.90;52.50;;;;;;4983735;28;20073;-79
2020/12/31 13:12:06;;;;;;;6.60;3.35;;;8.20;52.30;;;;;;5001902;28;20025;-77
2020/12/31 13:14:34;;;;;;;4.10;3.10;;;8.30;51.40;;;;;;4984871;28;20052;-78
2020/12/31 13:17:00;;;;;;;5.47;2.75;;;8.40;50.40;;;;;;5000906;28;20041;-76
2020/12/31 13:19:27;;;;;;;3.83;2.83;;;8.50;49.80;;;;;;5000112;28;20041;-76
2020/12/31 13:21:57;;;;;;;6.38;3.13;;;8.70;49.60;;;;;;5017886;28;20108;-74
2020/12/31 13:24:23;;;;;;;5.70;2.60;;;8.90;49.00;;;;;;4998652;28;20026;-75